Time;durP1;ratioP1;P1;durP2;ratioP2;P2;SDS_P1;SDS_P2;PMS_P1;PMS_P2;Temp;Humidity;BMP_temperature;BMP_pressure;BME280_temperature;BME280_humidity;BME280_pressure;Samples;Min_cycle;Max_cycle;Signal;HPM_P1;HPM_P2
2021/08/05 00:02:35;;;;;;;4.47;1.52;;;;;;;13.10;97.97;92042.22;4815687;29;20074;-93
2021/08/05 00:05:14;;;;;;;1.25;1.02;;;;;;;13.28;98.22;92064.00;4791156;29;20065;-92
2021/08/05 00:07:53;;;;;;;0.90;0.82;;;;;;;13.17;98.14;92052.25;4797830;29;20074;-93
2021/08/05 00:10:42;;;;;;;1.00;0.80;;;;;;;13.11;98.04;92041.91;4843191;29;20396;-95
2021/08/05 00:13:23;;;;;;;;;;;;;;;;;;;;;
2021/08/05 00:16:27;;;;;;;0.70;0.70;;;;;;;13.24;97.96;92058.59;4826614;29;20045;-93
2021/08/05 00:19:18;;;;;;;0.90;0.77;;;;;;;13.20;97.86;92049.03;4813356;29;20516;-94
2021/08/05 00:22:25;;;;;;;0.60;0.60;;;;;;;12.93;97.79;92016.00;4792248;29;20152;-92
2021/08/05 00:25:17;;;;;;;0.47;0.47;;;;;;;12.75;97.67;92007.34;4835319;29;20050;-94
2021/08/05 00:28:31;;;;;;;0.73;0.73;;;;;;;12.89;97.86;92040.22;4839078;29;20053;-93
2021/08/05 00:31:23;;;;;;;;;;;;;;;;;;;;;
2021/08/05 00:34:16;;;;;;;0.88;0.82;;;;;;;12.83;97.88;92038.06;4839378;29;20068;-93
2021/08/05 00:37:00;;;;;;;0.35;0.35;;;;;;;12.56;97.72;92011.03;4814482;29;20522;-93
2021/08/05 00:39:58;;;;;;;0.93;0.70;;;;;;;12.48;97.31;92006.59;4811533;29;20046;-94
2021/08/05 00:42:58;;;;;;;0.50;0.50;;;;;;;12.63;97.39;92035.00;4825819;29;20064;-93
2021/08/05 00:45:35;;;;;;;0.47;0.47;;;;;;;12.57;97.53;92036.25;4813153;29;20050;-94
2021/08/05 00:48:13;;;;;;;0.50;0.50;;;;;;;12.60;97.36;92043.50;4802832;29;20066;-94
2021/08/05 00:50:58;;;;;;;0.30;0.30;;;;;;;12.37;97.43;92008.75;4808825;29;20099;-92
2021/08/05 00:53:30;;;;;;;0.50;0.50;;;;;;;12.59;97.31;92035.94;4807722;29;20074;-93
2021/08/05 00:56:10;;;;;;;;;;;;;;;;;;;;;
2021/08/05 00:59:00;;;;;;;;;;;;;;;;;;;;;
2021/08/05 01:04:45;;;;;;;0.77;0.73;;;;;;;12.37;97.37;92013.22;4849418;29;20047;-94
2021/08/05 01:07:39;;;;;;;0.63;0.60;;;;;;;12.39;97.41;92018.94;4822043;29;20273;-93
2021/08/05 01:10:46;;;;;;;;;;;;;;;;;;;;;
2021/08/05 01:13:41;;;;;;;0.32;0.32;;;;;;;12.48;97.45;92045.97;4859879;29;20050;-91
2021/08/05 01:16:28;;;;;;;0.50;0.50;;;;;;;12.12;97.40;91994.53;4808056;29;20058;-93
2021/08/05 01:19:20;;;;;;;0.30;0.30;;;;;;;12.15;97.45;92009.63;4811208;29;20331;-92
2021/08/05 01:22:33;;;;;;;;;;;;;;;;;;;;;
2021/08/05 01:25:20;;;;;;;0.50;0.50;;;;;;;12.03;97.47;91984.00;4824905;29;20102;-93
2021/08/05 01:28:16;;;;;;;;;;;;;;;;;;;;;
2021/08/05 01:31:23;;;;;;;0.50;0.50;;;;;;;12.06;97.77;91985.25;4845786;29;20046;-93
2021/08/05 01:34:12;;;;;;;0.98;0.75;;;;;;;11.97;97.66;91973.97;4816096;29;20058;-93
2021/08/05 01:36:48;;;;;;;;;;;;;;;;;;;;;
2021/08/05 01:39:19;;;;;;;0.50;0.50;;;;;;;12.10;97.82;92015.03;4822930;29;20126;-93
2021/08/05 01:41:53;;;;;;;0.50;0.50;;;;;;;11.93;97.95;91991.38;4804056;29;20447;-92
2021/08/05 01:44:45;;;;;;;0.50;0.50;;;;;;;11.81;98.08;91978.84;4824120;29;20046;-92
2021/08/05 01:47:45;;;;;;;0.50;0.50;;;;;;;11.79;98.22;91979.16;4820074;29;20052;-92
2021/08/05 01:50:19;;;;;;;0.52;0.50;;;;;;;11.77;98.22;91973.44;4806317;29;20130;-93
2021/08/05 01:53:03;;;;;;;;;;;;;;;;;;;;;
2021/08/05 01:55:54;;;;;;;0.40;0.40;;;;;;;11.69;98.12;91971.56;4824728;29;20477;-93
2021/08/05 01:59:08;;;;;;;0.50;0.50;;;;;;;11.91;98.13;92002.22;4841118;29;20046;-95
2021/08/05 02:02:00;;;;;;;0.50;0.50;;;;;;;11.79;98.08;91987.00;4823316;29;20145;-91
2021/08/05 02:04:55;;;;;;;0.60;0.60;;;;;;;11.63;97.76;91968.31;4825782;29;20519;-93
2021/08/05 02:07:52;;;;;;;0.50;0.50;;;;;;;11.80;98.07;91996.44;4778087;29;20137;-92
2021/08/05 02:10:45;;;;;;;;;;;;;;;;;;;;;
2021/08/05 02:13:39;;;;;;;0.50;0.50;;;;;;;11.78;98.60;92001.22;4802532;29;20055;-92
2021/08/05 02:16:19;;;;;;;1.27;0.65;;;;;;;11.70;98.48;91986.22;4812756;29;20047;-92
2021/08/05 02:18:58;;;;;;;1.13;0.68;;;;;;;11.62;98.52;91971.25;4807207;29;20531;-91
2021/08/05 02:21:44;;;;;;;0.57;0.57;;;;;;;11.45;98.67;91946.53;4802491;29;20058;-93
2021/08/05 02:24:27;;;;;;;;;;;;;;;;;;;;;
2021/08/05 02:27:14;;;;;;;0.52;0.52;;;;;;;11.60;98.44;91957.69;4806618;29;20057;-92
2021/08/05 02:30:00;;;;;;;0.57;0.57;;;;;;;11.50;98.56;91947.47;4780828;29;20062;-92
2021/08/05 02:32:47;;;;;;;0.63;0.63;;;;;;;11.58;98.49;91965.06;4824968;29;20051;-92
2021/08/05 02:38:59;;;;;;;0.30;0.30;;;;;;;11.59;98.42;91971.84;4819514;29;20054;-93
2021/08/05 02:41:43;;;;;;;0.50;0.50;;;;;;;11.59;98.33;91974.47;4825446;29;20055;-94
2021/08/05 02:44:57;;;;;;;0.73;0.73;;;;;;;11.36;98.41;91932.63;4818716;29;20481;-92
2021/08/05 02:47:54;;;;;;;;;;;;;;;;;;;;;
2021/08/05 02:50:52;;;;;;;0.50;0.47;;;;;;;11.54;98.18;91951.03;4808952;29;20386;-93
2021/08/05 02:53:33;;;;;;;0.35;0.35;;;;;;;11.39;98.01;91931.25;4813197;29;20051;-92
2021/08/05 02:56:39;;;;;;;0.40;0.40;;;;;;;11.32;97.99;91925.66;4805113;29;20139;-94
2021/08/05 02:59:14;;;;;;;0.30;0.30;;;;;;;11.51;98.04;91955.03;4790755;29;20116;-93
2021/08/05 03:05:18;;;;;;;0.50;0.50;;;;;;;11.43;97.91;91950.53;4807415;29;20053;-93
2021/08/05 03:08:17;;;;;;;3.55;0.47;;;;;;;11.24;97.91;91924.56;4809081;29;20074;-92
2021/08/05 03:10:46;;;;;;;0.38;0.38;;;;;;;11.16;97.84;91912.22;4818536;29;20042;-91
2021/08/05 03:13:40;;;;;;;;;;;;;;;;;;;;;
2021/08/05 03:16:32;;;;;;;0.63;0.60;;;;;;;11.42;98.18;91939.28;4835456;29;20061;-92
2021/08/05 03:19:34;;;;;;;0.60;0.60;;;;;;;11.25;98.45;91915.63;4808175;29;20046;-92
2021/08/05 03:22:04;;;;;;;0.77;0.70;;;;;;;11.18;98.38;91910.06;4816452;29;20110;-92
2021/08/05 03:25:04;;;;;;;0.45;0.43;;;;;;;11.15;98.34;91918.53;4809561;29;20231;-93
2021/08/05 03:27:42;;;;;;;0.50;0.50;;;;;;;11.12;98.67;91922.50;4809620;29;20062;-92
2021/08/05 03:30:26;;;;;;;0.45;0.45;;;;;;;11.11;98.67;91920.22;4824409;29;20356;-92
2021/08/05 03:33:05;;;;;;;0.73;0.73;;;;;;;11.11;99.04;91917.59;4810260;29;20097;-92
2021/08/05 03:35:47;;;;;;;0.32;0.32;;;;;;;11.25;98.84;91944.44;4812133;29;20056;-93
2021/08/05 03:38:24;;;;;;;0.40;0.40;;;;;;;11.10;98.70;91923.88;4824600;29;20054;-93
2021/08/05 03:41:01;;;;;;;0.68;0.68;;;;;;;11.34;98.56;91950.50;4811554;29;20104;-92
2021/08/05 03:43:42;;;;;;;0.40;0.40;;;;;;;11.22;98.25;91939.81;4808594;29;20047;-93
2021/08/05 03:46:27;;;;;;;;;;;;;;;;;;;;;
2021/08/05 03:48:59;;;;;;;0.30;0.30;;;;;;;11.04;98.06;91929.28;4823955;29;20115;-93
2021/08/05 03:51:35;;;;;;;0.40;0.40;;;;;;;11.04;98.10;91925.88;4799340;29;20095;-93
2021/08/05 03:54:07;;;;;;;0.40;0.40;;;;;;;11.10;98.35;91939.59;4806973;29;20618;-92
2021/08/05 03:56:53;;;;;;;0.40;0.40;;;;;;;11.21;98.34;91967.88;4837586;29;20053;-92
2021/08/05 03:59:34;;;;;;;0.30;0.30;;;;;;;11.08;98.32;91947.00;4822454;29;20050;-92
2021/08/05 04:02:05;;;;;;;0.38;0.38;;;;;;;11.23;98.34;91975.41;4788327;29;20054;-92
2021/08/05 04:07:35;;;;;;;0.60;0.60;;;;;;;11.02;98.10;91941.13;4801578;29;20414;-92
2021/08/05 04:10:13;;;;;;;0.60;0.60;;;;;;;10.94;97.65;91932.16;4819739;29;20054;-93
2021/08/05 04:13:19;;;;;;;;;;;;;;;;;;;;;
2021/08/05 04:16:17;;;;;;;0.40;0.40;;;;;;;11.06;97.51;91942.06;4789799;29;20143;-93
2021/08/05 04:19:11;;;;;;;0.40;0.40;;;;;;;10.95;97.63;91931.06;4827511;29;20034;-94
2021/08/05 04:22:05;;;;;;;0.50;0.47;;;;;;;11.07;97.66;91940.22;4807895;29;20077;-94
2021/08/05 04:24:49;;;;;;;0.38;0.35;;;;;;;10.97;97.90;91930.78;4798379;29;20074;-92
2021/08/05 04:27:44;;;;;;;0.50;0.50;;;;;;;10.88;97.62;91927.34;4791547;29;20061;-92
2021/08/05 04:30:43;;;;;;;;;;;;;;;;;;;;;
2021/08/05 04:33:34;;;;;;;1.20;0.88;;;;;;;10.91;97.57;91950.31;4820355;29;20059;-93
2021/08/05 04:36:10;;;;;;;0.30;0.30;;;;;;;10.93;97.41;91938.47;4806671;29;20135;-92
2021/08/05 04:38:44;;;;;;;0.40;0.40;;;;;;;11.00;97.47;91941.41;4806813;29;20133;-91
2021/08/05 04:41:35;;;;;;;;;;;;;;;;;;;;;
2021/08/05 04:44:33;;;;;;;0.50;0.50;;;;;;;11.31;97.13;91968.69;4793036;29;20390;-93
2021/08/05 04:47:28;;;;;;;;;;;;;;;;;;;;;
2021/08/05 04:50:26;;;;;;;0.40;0.40;;;;;;;11.25;97.39;91954.94;4806523;29;20042;-91
2021/08/05 04:53:16;;;;;;;0.45;0.45;;;;;;;11.22;97.01;91948.44;4814274;29;20054;-93
2021/08/05 04:56:00;;;;;;;;;;;;;;;;;;;;;
2021/08/05 05:19:16;;;;;;;;;;;;;;;;;;;;;
2021/08/05 05:35:00;;;;;;;;;;;;;;;;;;;;;
2021/08/05 06:02:12;;;;;;;0.30;0.30;;;;;;;14.12;87.35;91957.22;5094710;27;1392496;-79
2021/08/05 06:04:37;;;;;;;0.30;0.30;;;;;;;14.21;86.64;91966.88;5120376;28;20067;-78
2021/08/05 06:07:03;;;;;;;0.35;0.35;;;;;;;14.34;86.08;91971.13;5121111;27;20370;-79
2021/08/05 06:09:29;;;;;;;0.70;0.70;;;;;;;14.94;84.60;91972.53;5114866;28;20043;-79
2021/08/05 06:11:54;;;;;;;0.80;0.80;;;;;;;17.78;72.97;91975.38;5114399;28;20027;-79
2021/08/05 06:14:20;;;;;;;0.60;0.60;;;;;;;20.88;62.26;91972.56;5117204;28;20401;-79
2021/08/05 06:16:45;;;;;;;0.60;0.60;;;;;;;23.01;51.49;91972.03;5113139;28;20039;-79
2021/08/05 06:19:12;;;;;;;0.70;0.70;;;;;;;24.61;48.63;91961.88;5096233;28;20124;-79
2021/08/05 06:21:39;;;;;;;0.70;0.70;;;;;;;25.94;46.17;91970.06;5119698;27;20033;-79
2021/08/05 06:24:05;;;;;;;1.67;1.38;;;;;;;27.01;42.70;91967.53;5093960;28;20028;-79
2021/08/05 06:26:30;;;;;;;0.80;0.80;;;;;;;27.96;41.48;91977.44;5122043;28;20027;-79
2021/08/05 06:28:56;;;;;;;1.50;1.20;;;;;;;28.34;39.95;91977.25;5111783;28;20031;-79
2021/08/05 06:31:22;;;;;;;3.50;1.77;;;;;;;28.92;38.27;91970.88;5125840;27;20035;-79
2021/08/05 06:33:51;;;;;;;1.25;0.98;;;;;;;29.50;38.12;91976.69;5118882;27;20100;-79
2021/08/05 06:36:21;;;;;;;1.38;1.15;;;;;;;30.10;36.76;91979.22;5113989;28;20389;-79
2021/08/05 06:38:48;;;;;;;1.20;1.02;;;;;;;30.81;34.66;91976.00;5125562;28;20121;-79
2021/08/05 06:41:14;;;;;;;1.52;1.27;;;;;;;31.26;30.48;91981.38;5118610;28;20034;-80
2021/08/05 06:43:40;;;;;;;4.50;1.40;;;;;;;30.93;34.97;91980.72;5114321;28;20105;-79
2021/08/05 06:46:06;;;;;;;1.73;1.30;;;;;;;31.30;36.70;91990.13;5110877;28;20127;-80
2021/08/05 06:48:32;;;;;;;1.40;1.30;;;;;;;31.58;34.86;91987.84;5112031;28;20027;-80
2021/08/05 06:50:58;;;;;;;1.40;1.27;;;;;;;31.56;35.12;91987.50;5113580;28;20031;-81
2021/08/05 06:53:24;;;;;;;2.00;1.42;;;;;;;31.80;33.85;91987.22;5116685;28;20035;-79
2021/08/05 06:55:50;;;;;;;2.17;1.33;;;;;;;28.09;42.54;91987.66;5114151;28;20043;-79
2021/08/05 06:58:19;;;;;;;1.20;0.98;;;;;;;28.35;43.63;91989.53;5112936;28;20036;-79
2021/08/05 07:00:46;;;;;;;1.55;1.00;;;;;;;24.90;52.19;91986.63;5110093;28;20044;-80
2021/08/05 07:03:12;;;;;;;0.88;0.88;;;;;;;23.45;55.79;91991.59;5131937;28;20057;-79
2021/08/05 07:05:38;;;;;;;1.90;1.15;;;;;;;21.58;61.99;91982.44;5112623;28;20315;-80
2021/08/05 07:08:04;;;;;;;1.00;0.80;;;;;;;21.05;64.32;91981.88;5113465;28;20034;-79
2021/08/05 07:10:48;;;;;;;1.17;0.85;;;;;;;20.89;62.27;91974.09;5131339;27;20429;-78
2021/08/05 07:13:14;;;;;;;2.35;0.90;;;;;;;20.75;64.51;91982.66;5118890;28;20501;-78
2021/08/05 07:15:40;;;;;;;1.05;0.80;;;;;;;20.62;64.76;91981.34;5117397;28;20068;-80
2021/08/05 07:18:06;;;;;;;2.58;1.30;;;;;;;20.32;67.41;91980.19;5087256;28;20105;-79
2021/08/05 07:20:31;;;;;;;1.33;0.60;;;;;;;20.32;65.63;91982.06;5081249;28;20476;-77
2021/08/05 07:22:57;;;;;;;2.35;1.70;;;;;;;20.08;69.09;91985.91;5060871;28;21317;-77
2021/08/05 07:25:23;;;;;;;1.00;0.88;;;;;;;19.70;68.43;91983.06;5062939;28;20062;-78
2021/08/05 07:27:48;;;;;;;0.55;0.55;;;;;;;19.64;72.46;91992.41;5094685;28;20086;-77
2021/08/05 07:30:16;;;;;;;1.02;0.63;;;;;;;20.03;61.40;91984.31;5063603;28;20028;-78
2021/08/05 07:32:42;;;;;;;0.50;0.50;;;;;;;20.10;66.25;91987.06;5080318;28;20496;-77
2021/08/05 07:35:08;;;;;;;0.73;0.70;;;;;;;20.02;63.84;91982.78;5090193;28;20043;-77
2021/08/05 07:37:34;;;;;;;0.43;0.43;;;;;;;20.15;59.64;91970.84;5078076;28;20119;-77
2021/08/05 07:40:00;;;;;;;0.60;0.60;;;;;;;20.49;59.65;91978.91;5094680;28;20130;-78
2021/08/05 07:42:26;;;;;;;0.52;0.52;;;;;;;20.64;56.53;91974.56;5075394;28;20040;-77
2021/08/05 07:44:52;;;;;;;0.50;0.50;;;;;;;20.99;58.20;91981.44;5079835;28;20028;-78
2021/08/05 07:47:19;;;;;;;1.00;0.88;;;;;;;21.20;57.20;91988.88;5070444;28;20124;-77
2021/08/05 07:49:45;;;;;;;0.43;0.43;;;;;;;21.34;53.23;91981.03;5059472;28;20470;-78
2021/08/05 07:52:11;;;;;;;0.30;0.30;;;;;;;21.22;50.05;91983.97;5075124;28;20032;-77
2021/08/05 07:54:37;;;;;;;0.85;0.50;;;;;;;21.25;51.58;91980.56;5082996;28;20048;-78
2021/08/05 07:57:03;;;;;;;0.43;0.43;;;;;;;21.32;53.73;91982.53;5052209;28;20398;-78
2021/08/05 07:59:29;;;;;;;0.35;0.35;;;;;;;21.30;54.02;91987.47;5077258;28;20127;-78
2021/08/05 08:01:55;;;;;;;0.30;0.30;;;;;;;21.37;52.14;91988.31;5066144;28;20144;-78
2021/08/05 08:04:21;;;;;;;0.50;0.50;;;;;;;21.21;52.48;91993.09;5069701;28;20564;-78
2021/08/05 08:06:46;;;;;;;0.50;0.50;;;;;;;21.21;54.22;91996.53;5068469;28;20378;-77
2021/08/05 08:09:12;;;;;;;0.30;0.30;;;;;;;21.17;60.65;91994.94;5057132;28;20311;-77
2021/08/05 08:11:37;;;;;;;1.30;0.60;;;;;;;21.18;61.82;92001.78;5058383;28;20041;-77
2021/08/05 08:14:04;;;;;;;0.80;0.70;;;;;;;21.24;61.15;92002.25;5055743;28;20035;-78
2021/08/05 08:16:29;;;;;;;1.73;0.75;;;;;;;21.42;60.92;92003.22;5073872;28;20042;-78
2021/08/05 08:18:55;;;;;;;1.75;0.68;;;;;;;21.59;59.87;91994.66;5061969;28;20453;-78
2021/08/05 08:21:21;;;;;;;0.70;0.65;;;;;;;21.81;59.17;92000.16;5063705;28;20060;-77
2021/08/05 08:23:47;;;;;;;1.25;0.93;;;;;;;22.04;58.05;91992.75;5052335;28;20044;-77
2021/08/05 08:26:14;;;;;;;0.50;0.50;;;;;;;22.19;55.08;91990.94;5068701;28;20043;-77
2021/08/05 08:28:41;;;;;;;0.75;0.52;;;;;;;22.21;55.20;91986.03;5049831;28;20040;-77
2021/08/05 08:31:07;;;;;;;0.75;0.57;;;;;;;22.34;58.64;91991.84;5060037;28;20036;-77
2021/08/05 08:33:32;;;;;;;0.57;0.57;;;;;;;21.39;63.80;91991.38;5070543;28;20482;-77
2021/08/05 08:35:58;;;;;;;0.85;0.60;;;;;;;21.56;60.87;91984.72;5064293;28;20128;-77
2021/08/05 08:38:25;;;;;;;0.30;0.30;;;;;;;22.11;54.93;91985.94;5071202;28;20305;-77
2021/08/05 08:40:54;;;;;;;0.35;0.35;;;;;;;22.13;49.55;91978.31;5065052;28;20074;-78
2021/08/05 08:43:19;;;;;;;0.30;0.30;;;;;;;22.43;54.52;91981.63;5070549;28;20127;-77
2021/08/05 08:45:47;;;;;;;0.52;0.52;;;;;;;22.86;52.95;91978.41;5069863;28;20116;-77
2021/08/05 08:48:13;;;;;;;0.32;0.32;;;;;;;23.04;51.33;91976.59;5069448;28;20036;-77
2021/08/05 08:50:40;;;;;;;0.35;0.35;;;;;;;22.80;47.50;91974.56;5069555;28;20059;-77
2021/08/05 08:53:09;;;;;;;0.40;0.40;;;;;;;22.44;52.38;91982.38;5069012;28;20060;-77
2021/08/05 08:55:37;;;;;;;0.80;0.68;;;;;;;22.10;54.88;91982.50;5064869;28;20557;-77
2021/08/05 08:58:04;;;;;;;0.20;0.20;;;;;;;21.70;53.73;91978.00;5038565;28;20079;-77
2021/08/05 09:00:31;;;;;;;0.30;0.30;;;;;;;21.57;52.71;91970.28;5077139;28;20481;-77
2021/08/05 09:02:58;;;;;;;0.20;0.20;;;;;;;21.52;54.20;91977.81;5079109;28;20371;-77
2021/08/05 09:05:25;;;;;;;0.45;0.45;;;;;;;21.59;55.88;91972.56;5087230;28;20044;-77
2021/08/05 09:07:51;;;;;;;0.22;0.22;;;;;;;21.79;51.96;91976.53;5090947;28;20036;-77
2021/08/05 09:10:18;;;;;;;0.90;0.90;;;;;;;21.79;50.85;91968.53;5072324;28;20028;-78
2021/08/05 09:12:46;;;;;;;0.30;0.30;;;;;;;21.95;46.42;91972.88;5070388;28;20064;-77
2021/08/05 09:15:30;;;;;;;0.30;0.30;;;;;;;22.30;48.75;91974.28;5072882;28;20063;-77
2021/08/05 09:17:56;;;;;;;0.43;0.43;;;;;;;22.47;48.28;91965.63;5090209;28;20028;-77
2021/08/05 09:20:22;;;;;;;0.50;0.50;;;;;;;22.63;46.27;91971.44;5087073;28;20031;-77
2021/08/05 09:22:48;;;;;;;0.20;0.20;;;;;;;22.69;46.75;91971.06;5104549;28;20062;-77
2021/08/05 09:25:24;;;;;;;0.40;0.40;;;;;;;22.80;44.74;91974.56;5071975;28;20107;-77
2021/08/05 09:27:56;;;;;;;0.60;0.60;;;;;;;23.10;47.11;91978.91;5072820;28;20040;-77
2021/08/05 09:30:30;;;;;;;0.52;0.52;;;;;;;23.20;45.78;91978.94;5079091;28;20024;-77
2021/08/05 09:33:11;;;;;;;0.45;0.43;;;;;;;23.43;44.38;91975.19;5064151;28;20046;-78
2021/08/05 09:35:37;;;;;;;0.50;0.50;;;;;;;22.52;57.96;91975.19;5090618;28;20028;-77
2021/08/05 09:38:26;;;;;;;0.30;0.30;;;;;;;22.02;59.05;91983.56;5040527;28;20111;-77
2021/08/05 09:41:04;;;;;;;0.50;0.50;;;;;;;22.39;60.32;91986.16;5080367;28;20173;-77
2021/08/05 09:43:30;;;;;;;0.50;0.50;;;;;;;22.10;59.24;91979.84;5050324;28;20027;-77
2021/08/05 09:45:56;;;;;;;0.40;0.40;;;;;;;21.84;56.12;91972.78;5051990;28;20039;-78
2021/08/05 09:48:37;;;;;;;0.40;0.40;;;;;;;22.03;61.16;91979.78;5070920;28;20027;-77
2021/08/05 09:51:08;;;;;;;0.40;0.40;;;;;;;21.51;66.39;91981.63;5078495;28;20500;-77
2021/08/05 09:53:34;;;;;;;0.40;0.40;;;;;;;21.24;68.81;91981.72;5083805;28;20035;-77
2021/08/05 09:56:11;;;;;;;0.60;0.60;;;;;;;21.36;66.98;91976.13;5065276;28;20533;-77
2021/08/05 09:58:38;;;;;;;0.77;0.70;;;;;;;21.26;70.31;91982.13;5065107;28;20036;-77
2021/08/05 10:01:08;;;;;;;0.57;0.57;;;;;;;20.73;72.60;91983.03;5082276;28;20506;-77
2021/08/05 10:03:34;;;;;;;0.50;0.50;;;;;;;21.12;70.42;91981.94;5104913;28;20032;-77
2021/08/05 10:06:05;;;;;;;0.75;0.63;;;;;;;20.53;73.21;91981.59;5101017;28;20138;-77
2021/08/05 10:08:39;;;;;;;0.55;0.52;;;;;;;20.75;69.94;91986.09;5075201;28;20071;-77
2021/08/05 10:11:06;;;;;;;0.60;0.55;;;;;;;20.81;72.03;91978.56;5071925;28;20032;-77
2021/08/05 10:13:35;;;;;;;0.70;0.60;;;;;;;20.81;70.79;91973.25;5072964;28;20393;-78
2021/08/05 10:16:04;;;;;;;0.30;0.30;;;;;;;21.15;68.54;91974.00;5090218;28;20036;-77
2021/08/05 10:18:34;;;;;;;1.95;0.93;;;;;;;21.41;67.62;91975.06;5089595;28;20555;-77
2021/08/05 10:21:03;;;;;;;0.50;0.50;;;;;;;21.24;64.95;91972.97;5095093;28;20043;-77
2021/08/05 10:23:29;;;;;;;0.50;0.50;;;;;;;21.60;65.45;91971.44;5096801;28;20040;-78
2021/08/05 10:26:00;;;;;;;0.38;0.38;;;;;;;21.19;57.90;91971.41;5090704;28;20081;-78
2021/08/05 10:28:27;;;;;;;0.55;0.50;;;;;;;21.27;64.26;91967.66;5055831;28;20123;-78
2021/08/05 10:30:55;;;;;;;1.75;0.73;;;;;;;20.69;69.24;91965.50;5097324;28;20492;-79
2021/08/05 10:33:22;;;;;;;0.93;0.60;;;;;;;21.17;65.62;91960.34;5081293;28;20040;-78
2021/08/05 10:35:49;;;;;;;0.45;0.45;;;;;;;21.72;63.90;91968.50;5091206;28;20123;-78
2021/08/05 10:38:23;;;;;;;0.63;0.63;;;;;;;21.82;60.65;91962.50;5090431;28;20043;-79
2021/08/05 10:40:50;;;;;;;0.20;0.20;;;;;;;21.57;57.90;91964.16;5095804;28;20375;-78
2021/08/05 10:43:16;;;;;;;1.20;0.70;;;;;;;21.79;59.78;91968.53;5092945;28;20032;-78
2021/08/05 10:45:43;;;;;;;0.40;0.40;;;;;;;22.24;61.59;91963.97;5090613;28;20051;-78
2021/08/05 10:48:09;;;;;;;0.32;0.32;;;;;;;22.60;58.58;91961.50;5092760;28;20035;-78
2021/08/05 10:50:41;;;;;;;12.77;0.65;;;;;;;22.63;55.40;91968.00;5096731;28;20020;-78
2021/08/05 10:53:32;;;;;;;0.32;0.32;;;;;;;22.90;56.93;91965.84;5092512;28;20069;-78
2021/08/05 10:56:27;;;;;;;0.50;0.50;;;;;;;23.00;54.18;91965.13;5094051;28;20024;-78
2021/08/05 10:59:11;;;;;;;0.75;0.70;;;;;;;23.06;54.00;91968.97;5093821;28;20035;-77
2021/08/05 11:01:53;;;;;;;0.70;0.70;;;;;;;23.14;52.66;91959.09;5104373;28;20051;-78
2021/08/05 11:04:39;;;;;;;0.50;0.50;;;;;;;22.89;50.93;91958.22;5094732;28;20039;-77
2021/08/05 11:07:28;;;;;;;0.30;0.30;;;;;;;23.24;53.07;91960.28;5073012;28;20033;-77
2021/08/05 11:10:15;;;;;;;0.50;0.50;;;;;;;23.23;50.08;91956.81;5056392;28;20032;-77
2021/08/05 11:12:51;;;;;;;0.85;0.80;;;;;;;22.80;50.29;91948.63;5080784;28;20039;-77
2021/08/05 11:15:19;;;;;;;0.45;0.45;;;;;;;23.11;54.72;91953.75;5083859;28;20100;-77
2021/08/05 11:18:10;;;;;;;0.52;0.40;;;;;;;22.87;61.36;91956.66;5098654;28;20122;-77
2021/08/05 11:20:35;;;;;;;0.98;0.73;;;;;;;22.73;60.67;91959.28;5079657;28;20029;-78
2021/08/05 11:23:01;;;;;;;0.63;0.63;;;;;;;22.84;54.43;91959.34;5094873;28;20126;-78
2021/08/05 11:25:50;;;;;;;0.43;0.43;;;;;;;22.42;55.31;91963.31;5069717;28;21212;-78
2021/08/05 11:28:26;;;;;;;0.40;0.40;;;;;;;22.99;54.95;91960.97;5068222;28;20039;-78
2021/08/05 11:30:58;;;;;;;0.60;0.60;;;;;;;22.88;55.01;91952.13;5082910;28;20036;-77
2021/08/05 11:33:36;;;;;;;0.50;0.50;;;;;;;23.07;51.40;91959.06;5093875;28;20024;-78
2021/08/05 11:36:18;;;;;;;0.57;0.57;;;;;;;23.44;51.10;91953.44;5067592;28;20036;-77
2021/08/05 11:39:16;;;;;;;0.63;0.47;;;;;;;23.09;51.87;91956.03;5064294;28;20036;-77
2021/08/05 11:42:02;;;;;;;0.40;0.40;;;;;;;23.39;50.26;91963.72;5063002;28;20028;-77
2021/08/05 11:44:31;;;;;;;0.50;0.50;;;;;;;23.93;50.72;91953.13;5086611;28;20052;-77
2021/08/05 11:47:00;;;;;;;0.65;0.50;;;;;;;24.14;49.07;91955.81;5077261;28;20073;-78
2021/08/05 11:49:44;;;;;;;0.38;0.38;;;;;;;23.97;47.42;91956.56;5102365;28;20500;-80
2021/08/05 11:52:21;;;;;;;0.60;0.57;;;;;;;24.30;47.99;91961.50;5081132;28;20519;-77
2021/08/05 11:54:57;;;;;;;0.60;0.60;;;;;;;24.30;48.33;91961.50;5092423;28;20461;-77
2021/08/05 11:57:23;;;;;;;0.50;0.50;;;;;;;24.28;45.39;91955.78;5089665;28;20058;-78
2021/08/05 11:59:52;;;;;;;0.43;0.43;;;;;;;24.65;46.38;91951.88;5070246;28;20454;-77
2021/08/05 12:02:22;;;;;;;3.67;0.60;;;;;;;24.84;43.05;91949.94;5105222;28;20036;-77
2021/08/05 12:04:50;;;;;;;0.95;0.60;;;;;;;24.83;42.58;91948.41;5091031;28;20366;-77
2021/08/05 12:07:23;;;;;;;0.50;0.50;;;;;;;24.68;43.83;91953.81;5090587;28;20031;-78
2021/08/05 12:10:25;;;;;;;0.75;0.57;;;;;;;25.19;42.73;91948.28;5093431;28;20121;-77
2021/08/05 12:12:54;;;;;;;0.75;0.63;;;;;;;25.04;42.19;91942.97;5035583;28;20045;-77
2021/08/05 12:15:27;;;;;;;1.80;0.73;;;;;;;25.22;42.92;91936.78;5055664;28;20453;-77
2021/08/05 12:17:54;;;;;;;0.60;0.60;;;;;;;25.29;43.71;91937.53;5095994;28;20046;-78
2021/08/05 12:20:26;;;;;;;0.63;0.50;;;;;;;24.41;44.52;91937.41;5070973;28;20569;-77
2021/08/05 12:22:54;;;;;;;0.55;0.47;;;;;;;24.09;39.78;91934.78;5087665;28;20063;-77
2021/08/05 12:25:27;;;;;;;0.73;0.55;;;;;;;25.04;42.94;91932.25;5091593;28;20036;-77
2021/08/05 12:27:55;;;;;;;0.40;0.38;;;;;;;24.75;44.01;91936.22;5092293;28;20031;-77
2021/08/05 12:30:21;;;;;;;0.38;0.38;;;;;;;24.82;41.47;91928.16;5093120;28;20028;-77
2021/08/05 12:33:08;;;;;;;0.50;0.50;;;;;;;24.69;42.05;91931.25;5055804;28;20047;-77
2021/08/05 12:35:34;;;;;;;0.45;0.40;;;;;;;24.68;43.09;91934.31;5092904;28;20028;-78
2021/08/05 12:38:14;;;;;;;0.73;0.55;;;;;;;24.55;42.72;91931.28;5094726;28;20038;-77
2021/08/05 12:40:45;;;;;;;0.40;0.40;;;;;;;24.46;40.35;91923.66;5072957;28;20048;-78
2021/08/05 12:43:12;;;;;;;0.50;0.50;;;;;;;24.87;42.73;91920.47;5086984;28;20031;-78
2021/08/05 12:45:41;;;;;;;0.68;0.60;;;;;;;25.28;40.83;91919.16;5073422;28;20459;-78
2021/08/05 12:48:08;;;;;;;0.60;0.60;;;;;;;25.40;41.94;91926.75;5084159;28;20448;-76
2021/08/05 12:50:44;;;;;;;0.47;0.47;;;;;;;25.42;39.49;91919.09;5073733;28;20036;-78
2021/08/05 12:53:24;;;;;;;1.23;0.68;;;;;;;25.60;41.73;91910.16;5088251;28;20455;-77
2021/08/05 12:55:52;;;;;;;0.38;0.38;;;;;;;25.04;41.22;91916.19;5092346;28;20564;-78
2021/08/05 12:58:19;;;;;;;0.95;0.57;;;;;;;25.41;41.90;91916.78;5064025;28;20032;-78
2021/08/05 13:00:46;;;;;;;0.52;0.52;;;;;;;25.39;41.21;91919.09;5087451;28;20051;-78
2021/08/05 13:03:11;;;;;;;0.38;0.38;;;;;;;25.39;43.85;91924.44;5083663;28;20519;-78
2021/08/05 13:05:58;;;;;;;0.75;0.60;;;;;;;25.43;43.22;91925.19;5090217;28;20064;-78
2021/08/05 13:08:32;;;;;;;0.40;0.40;;;;;;;24.86;40.71;91932.34;5078384;28;20135;-77
2021/08/05 13:11:00;;;;;;;0.65;0.65;;;;;;;25.36;42.04;91927.94;5080818;28;20424;-78
2021/08/05 13:13:49;;;;;;;0.77;0.68;;;;;;;25.67;43.31;91926.94;5059965;28;20042;-78
2021/08/05 13:16:37;;;;;;;2.20;0.50;;;;;;;25.88;41.29;91934.09;5088589;28;20421;-78
2021/08/05 13:19:13;;;;;;;0.60;0.60;;;;;;;25.88;39.66;91927.97;5050481;28;20520;-78
2021/08/05 13:21:58;;;;;;;0.40;0.40;;;;;;;25.84;39.93;91917.25;5093378;28;20164;-78
2021/08/05 13:24:31;;;;;;;0.60;0.60;;;;;;;25.61;40.82;91919.72;5092616;28;20035;-78
2021/08/05 13:27:02;;;;;;;0.50;0.50;;;;;;;25.57;41.02;91916.31;5074165;28;20157;-78
2021/08/05 13:29:38;;;;;;;1.52;0.90;;;;;;;25.88;39.54;91911.88;5071102;28;20431;-78
2021/08/05 13:32:06;;;;;;;0.60;0.60;;;;;;;25.43;39.74;91909.88;5073668;28;20032;-78
2021/08/05 13:34:33;;;;;;;0.40;0.40;;;;;;;25.42;38.82;91916.41;5095768;28;20057;-78
2021/08/05 13:36:58;;;;;;;0.50;0.50;;;;;;;25.55;40.15;91911.31;5058306;28;20033;-77
2021/08/05 13:39:53;;;;;;;0.90;0.60;;;;;;;24.47;41.32;91905.69;5092038;28;20144;-77
2021/08/05 13:42:20;;;;;;;0.68;0.60;;;;;;;24.68;41.63;91900.28;5095699;28;20032;-77
2021/08/05 13:44:46;;;;;;;0.45;0.45;;;;;;;24.91;42.70;91902.47;5086339;28;20060;-78
2021/08/05 13:47:14;;;;;;;0.60;0.60;;;;;;;24.65;40.80;91901.06;5069364;28;20032;-77
2021/08/05 13:49:40;;;;;;;1.35;0.77;;;;;;;24.70;41.71;91906.03;5075756;28;20147;-78
2021/08/05 13:52:07;;;;;;;0.63;0.57;;;;;;;24.78;43.15;91904.06;5093290;28;20039;-77
2021/08/05 13:54:34;;;;;;;0.40;0.40;;;;;;;24.70;44.82;91903.34;5101289;28;20039;-78
2021/08/05 13:56:59;;;;;;;0.88;0.80;;;;;;;24.60;42.61;91904.13;5070780;28;20043;-77